Time;durP1;ratioP1;P1;durP2;ratioP2;P2;SDS_P1;SDS_P2;PMS_P1;PMS_P2;Temp;Humidity;BMP_temperature;BMP_pressure;BME280_temperature;BME280_humidity;BME280_pressure;Samples;Min_cycle;Max_cycle;Signal;HPM_P1;HPM_P2
2023/03/16 00:00:23;;;;;;;10.13;3.45;;;17.80;77.90;;;;;;10454473;28;20036;-24
2023/03/16 00:05:25;;;;;;;10.10;3.22;;;17.70;78.00;;;;;;10451355;28;20497;-24
2023/03/16 00:10:27;;;;;;;10.25;3.28;;;17.60;78.70;;;;;;10453634;28;20033;-23
2023/03/16 00:15:30;;;;;;;5.53;2.30;;;17.60;78.50;;;;;;10451181;28;20148;-24
2023/03/16 00:20:32;;;;;;;5.93;2.72;;;17.60;78.60;;;;;;10447281;28;20084;-23
2023/03/16 00:25:34;;;;;;;7.28;2.90;;;17.40;79.60;;;;;;10451107;28;20052;-23
2023/03/16 00:30:37;;;;;;;6.37;2.47;;;17.40;79.60;;;;;;10451797;28;20049;-24
2023/03/16 00:35:39;;;;;;;8.98;2.35;;;17.60;78.30;;;;;;10446255;28;20110;-24
2023/03/16 00:40:41;;;;;;;6.43;2.00;;;17.30;80.60;;;;;;10448490;28;20041;-23
2023/03/16 00:45:44;;;;;;;12.85;3.42;;;17.30;80.20;;;;;;10449036;28;21660;-24
2023/03/16 00:50:46;;;;;;;6.70;2.20;;;17.50;78.90;;;;;;10449591;28;20091;-23
2023/03/16 00:55:48;;;;;;;4.70;2.20;;;17.20;81.00;;;;;;10452815;28;20060;-24
2023/03/16 01:00:52;;;;;;;3.85;1.90;;;17.20;80.70;;;;;;10449074;28;20040;-24
2023/03/16 01:05:58;;;;;;;4.47;2.03;;;17.20;80.50;;;;;;10450256;28;20049;-23
2023/03/16 01:11:03;;;;;;;8.48;1.98;;;17.20;79.90;;;;;;10452723;28;20041;-24
2023/03/16 01:16:08;;;;;;;5.65;2.28;;;17.20;79.90;;;;;;10447968;28;20409;-23
2023/03/16 01:21:12;;;;;;;8.95;2.55;;;17.20;80.70;;;;;;10448563;28;20060;-23
2023/03/16 01:26:15;;;;;;;9.05;2.45;;;17.10;80.70;;;;;;10447441;28;20045;-24
2023/03/16 01:31:19;;;;;;;4.05;1.63;;;17.10;80.70;;;;;;10449657;28;20389;-24
2023/03/16 01:36:21;;;;;;;6.03;1.90;;;17.20;80.70;;;;;;10447872;28;20135;-24
2023/03/16 01:41:23;;;;;;;5.18;2.20;;;16.90;82.20;;;;;;10445794;28;20480;-25
2023/03/16 01:46:27;;;;;;;6.00;1.70;;;16.90;82.10;;;;;;10448049;28;20048;-24
2023/03/16 01:51:35;;;;;;;6.22;1.65;;;16.90;82.90;;;;;;10446337;28;20125;-24
2023/03/16 01:56:41;;;;;;;2.90;1.80;;;16.90;82.20;;;;;;10445570;28;20053;-24
2023/03/16 02:01:45;;;;;;;5.00;2.10;;;17.00;81.60;;;;;;10444541;28;20045;-24
2023/03/16 02:06:47;;;;;;;4.40;1.67;;;16.80;82.30;;;;;;10437867;28;20767;-24
2023/03/16 02:11:50;;;;;;;6.10;2.00;;;16.80;73.00;;;;;;10447552;28;20064;-24
2023/03/16 02:16:55;;;;;;;6.38;1.98;;;16.80;81.90;;;;;;10446659;28;20051;-23
2023/03/16 02:22:03;;;;;;;9.05;2.20;;;16.80;83.10;;;;;;10444933;28;20041;-23
2023/03/16 02:27:09;;;;;;;5.10;2.38;;;16.80;83.50;;;;;;10444509;28;20128;-24
2023/03/16 02:32:14;;;;;;;4.47;1.83;;;16.80;82.60;;;;;;10442600;28;20033;-23
2023/03/16 02:37:16;;;;;;;3.72;1.80;;;16.90;81.80;;;;;;10442912;28;20385;-24
2023/03/16 02:42:20;;;;;;;4.65;2.10;;;16.70;82.90;;;;;;10443702;28;20425;-24
2023/03/16 02:47:29;;;;;;;3.92;1.77;;;16.80;82.50;;;;;;10446789;28;20044;-24
2023/03/16 02:52:31;;;;;;;2.40;1.63;;;16.70;82.60;;;;;;10442870;28;20041;-24
2023/03/16 02:57:33;;;;;;;4.00;1.57;;;16.70;83.40;;;;;;10445654;28;20049;-23
2023/03/16 03:02:36;;;;;;;4.00;2.00;;;16.70;83.80;;;;;;10444550;28;20080;-24
2023/03/16 03:07:39;;;;;;;5.82;1.98;;;16.70;83.40;;;;;;10446321;28;20406;-24
2023/03/16 03:12:41;;;;;;;6.47;2.28;;;16.70;83.00;;;;;;10445833;28;20053;-24
2023/03/16 03:17:45;;;;;;;5.63;1.70;;;16.70;82.80;;;;;;10445409;28;20487;-24
2023/03/16 03:22:48;;;;;;;3.20;1.52;;;16.70;83.40;;;;;;10444784;28;20533;-23
2023/03/16 03:27:53;;;;;;;5.75;2.08;;;16.60;83.30;;;;;;10443216;28;20053;-22
2023/03/16 03:32:56;;;;;;;5.05;2.05;;;16.60;84.00;;;;;;10449967;28;20219;-23
2023/03/16 03:37:58;;;;;;;4.53;2.05;;;16.60;82.70;;;;;;10453790;28;20048;-24
2023/03/16 03:43:00;;;;;;;3.83;1.60;;;16.60;83.20;;;;;;10452011;28;20432;-23
2023/03/16 03:48:03;;;;;;;4.90;2.50;;;16.40;84.60;;;;;;10453386;28;20460;-23
2023/03/16 03:53:05;;;;;;;3.25;1.40;;;16.50;83.70;;;;;;10446506;28;20065;-23
2023/03/16 03:58:07;;;;;;;2.72;1.83;;;16.50;82.80;;;;;;10451222;28;20110;-24
2023/03/16 04:03:11;;;;;;;2.67;1.50;;;16.40;83.60;;;;;;10451693;28;20436;-24
2023/03/16 04:08:12;;;;;;;6.18;1.90;;;16.60;82.30;;;;;;10452148;28;20567;-23
2023/03/16 04:13:14;;;;;;;3.13;1.60;;;16.40;82.70;;;;;;10449564;28;20044;-23
2023/03/16 04:18:17;;;;;;;3.43;1.60;;;16.40;83.00;;;;;;10449208;28;20045;-24
2023/03/16 04:23:19;;;;;;;3.03;1.70;;;16.50;82.80;;;;;;10450783;28;20473;-24
2023/03/16 04:28:21;;;;;;;3.83;1.98;;;16.50;82.60;;;;;;10450286;28;20116;-24
2023/03/16 04:33:25;;;;;;;4.23;2.27;;;16.40;83.50;;;;;;10450855;28;20068;-24
2023/03/16 04:38:26;;;;;;;6.35;2.60;;;16.40;82.60;;;;;;10449883;28;20540;-24
2023/03/16 04:43:29;;;;;;;2.63;1.40;;;16.40;82.70;;;;;;10449457;28;20103;-22
2023/03/16 04:48:32;;;;;;;3.63;1.50;;;16.40;83.00;;;;;;10443930;28;20468;-22
2023/03/16 04:53:34;;;;;;;4.15;1.65;;;16.30;83.30;;;;;;10450575;28;20068;-23
2023/03/16 04:58:36;;;;;;;1.90;1.23;;;16.30;82.80;;;;;;10448121;28;20053;-23
2023/03/16 05:03:39;;;;;;;3.43;2.07;;;16.30;82.80;;;;;;10447901;28;20052;-24
2023/03/16 05:08:41;;;;;;;4.03;1.83;;;16.30;82.80;;;;;;10452434;28;20136;-24
2023/03/16 05:13:43;;;;;;;2.50;1.50;;;16.30;83.30;;;;;;10449904;28;20206;-24
2023/03/16 05:18:46;;;;;;;1.57;1.20;;;16.50;80.90;;;;;;10449240;28;21087;-23
2023/03/16 05:23:48;;;;;;;2.25;1.23;;;16.60;80.50;;;;;;10449263;28;20053;-23
2023/03/16 05:28:50;;;;;;;2.80;1.10;;;16.30;82.90;;;;;;10449755;28;20114;-24
2023/03/16 05:33:53;;;;;;;;;;;16.50;81.70;;;;;;10446616;28;20115;-23
2023/03/16 05:38:55;;;;;;;;;;;16.50;81.10;;;;;;10446295;28;20027;-24
2023/03/16 05:43:57;;;;;;;1.58;1.00;;;16.50;81.80;;;;;;10447157;28;19917;-24
2023/03/16 05:49:00;;;;;;;4.90;1.03;;;16.50;81.60;;;;;;10443807;28;20397;-24
2023/03/16 05:54:02;;;;;;;1.85;0.90;;;16.70;80.10;;;;;;10442190;28;20041;-23
2023/03/16 05:59:04;;;;;;;3.53;1.10;;;16.50;81.30;;;;;;10449000;28;20542;-25
2023/03/16 06:04:07;;;;;;;3.90;1.20;;;16.10;83.00;;;;;;10445519;28;20532;-23
2023/03/16 06:09:09;;;;;;;2.05;0.82;;;16.20;82.10;;;;;;10446936;28;20512;-24
2023/03/16 06:14:11;;;;;;;1.37;1.17;;;16.20;83.90;;;;;;10447129;28;20081;-24
2023/03/16 06:19:14;;;;;;;1.13;0.70;;;16.20;83.90;;;;;;10442747;28;20566;-23
2023/03/16 06:24:16;;;;;;;2.25;0.85;;;16.40;81.90;;;;;;10445709;28;20044;-24
2023/03/16 06:29:18;;;;;;;1.47;1.03;;;16.30;82.10;;;;;;10441895;28;20128;-24
2023/03/16 06:34:21;;;;;;;2.60;0.90;;;16.10;83.70;;;;;;10443958;28;20385;-24
2023/03/16 06:39:23;;;;;;;2.70;0.98;;;16.40;81.70;;;;;;10444066;28;20045;-24
2023/03/16 06:44:25;;;;;;;1.70;0.83;;;16.30;82.60;;;;;;10440496;28;20132;-24
2023/03/16 06:49:28;;;;;;;2.55;1.00;;;16.30;82.10;;;;;;10423120;28;20061;-24
2023/03/16 06:54:31;;;;;;;1.80;0.88;;;16.30;81.50;;;;;;10442976;28;20437;-24
2023/03/16 06:59:33;;;;;;;;;;;16.20;81.40;;;;;;10446629;28;20060;-24
2023/03/16 07:15:16;;;;;;;57.28;9.65;;;16.40;79.60;;;;;;10498019;27;20113;-23
2023/03/16 07:20:18;;;;;;;78.15;11.48;;;16.20;82.00;;;;;;10507252;28;20055;-23
2023/03/16 07:25:20;;;;;;;69.25;12.73;;;16.00;83.10;;;;;;10497449;28;20123;-23
2023/03/16 07:30:24;;;;;;;104.87;17.33;;;15.80;83.10;;;;;;10500623;28;20036;-23
2023/03/16 07:35:26;;;;;;;129.95;24.10;;;15.90;84.50;;;;;;10503957;28;20055;-23
2023/03/16 07:40:28;;;;;;;117.90;22.65;;;16.00;84.20;;;;;;10511219;28;20449;-25
2023/03/16 07:45:31;;;;;;;56.03;12.20;;;15.80;84.10;;;;;;10508287;28;20080;-24
2023/03/16 07:50:33;;;;;;;56.80;11.73;;;15.80;84.40;;;;;;10511771;28;20069;-24
2023/03/16 07:55:37;;;;;;;67.20;15.87;;;15.90;83.40;;;;;;10511631;28;20051;-24
2023/03/16 08:00:41;;;;;;;108.72;21.45;;;16.10;81.20;;;;;;10514802;28;20395;-23
2023/03/16 08:05:43;;;;;;;64.35;14.45;;;16.20;80.70;;;;;;10511000;28;20683;-24
2023/03/16 08:10:48;;;;;;;47.67;9.13;;;16.30;78.70;;;;;;10506423;28;20929;-21
2023/03/16 08:15:57;;;;;;;36.10;8.88;;;16.30;79.00;;;;;;10508680;28;20068;-24
2023/03/16 08:20:59;;;;;;;29.75;7.05;;;16.50;77.70;;;;;;10515554;28;20052;-24
2023/03/16 08:26:02;;;;;;;23.20;7.00;;;16.50;78.00;;;;;;10490236;28;20074;-23
2023/03/16 08:31:07;;;;;;;32.80;7.93;;;16.40;78.40;;;;;;10486257;28;20044;-24
2023/03/16 08:36:12;;;;;;;20.55;4.50;;;16.50;75.70;;;;;;10487489;28;20473;-25
2023/03/16 08:41:15;;;;;;;9.48;4.88;;;16.50;76.90;;;;;;10487802;28;20094;-22
2023/03/16 08:46:20;;;;;;;22.17;4.82;;;16.60;74.60;;;;;;10487610;28;20384;-22
2023/03/16 08:51:22;;;;;;;16.35;4.55;;;16.50;76.30;;;;;;10483171;28;20060;-22
2023/03/16 08:56:23;;;;;;;12.40;3.80;;;16.70;75.50;;;;;;10484547;28;20079;-23
2023/03/16 09:01:28;;;;;;;11.70;4.43;;;16.80;75.40;;;;;;10477373;28;20127;-23
2023/03/16 09:06:30;;;;;;;10.93;3.33;;;16.80;75.50;;;;;;10482777;28;20045;-23
2023/03/16 09:11:32;;;;;;;6.43;1.73;;;16.90;74.00;;;;;;10480858;28;20087;-23
2023/03/16 09:16:37;;;;;;;12.35;3.30;;;16.90;72.00;;;;;;10479720;28;20126;-23
2023/03/16 09:21:39;;;;;;;8.00;2.60;;;17.10;73.50;;;;;;10485930;28;20040;-23
2023/03/16 09:26:41;;;;;;;5.47;1.95;;;17.20;74.60;;;;;;10485470;28;20068;-24
2023/03/16 09:31:44;;;;;;;7.57;2.45;;;17.30;75.20;;;;;;10479238;28;20049;-23
2023/03/16 09:36:46;;;;;;;10.25;3.03;;;17.40;73.40;;;;;;10486622;28;20063;-24
2023/03/16 09:41:53;;;;;;;5.33;2.07;;;17.20;73.00;;;;;;10487179;28;20055;-21
2023/03/16 09:46:57;;;;;;;5.85;2.33;;;16.90;74.20;;;;;;10485284;28;20550;-23
2023/03/16 09:52:09;;;;;;;6.30;2.38;;;17.00;74.10;;;;;;10478439;28;20481;-24
2023/03/16 09:57:17;;;;;;;5.47;2.47;;;17.20;73.20;;;;;;10471911;28;20123;-24
2023/03/16 10:02:46;;;;;;;4.78;1.45;;;17.10;72.80;;;;;;10482038;28;20039;-24
2023/03/16 10:08:00;;;;;;;9.95;2.80;;;17.10;73.80;;;;;;10474214;28;20515;-23
2023/03/16 10:13:03;;;;;;;20.02;4.07;;;17.30;73.90;;;;;;10479305;28;20056;-24
2023/03/16 10:18:12;;;;;;;11.95;3.20;;;16.80;69.10;;;;;;10484474;28;20123;-24
2023/03/16 10:23:19;;;;;;;42.85;7.05;;;16.80;72.20;;;;;;10485483;28;20058;-24
2023/03/16 10:28:25;;;;;;;38.47;6.68;;;17.00;73.00;;;;;;10489652;28;20334;-24
2023/03/16 10:33:30;;;;;;;60.03;7.82;;;17.00;76.10;;;;;;10474154;28;20492;-24
2023/03/16 10:38:41;;;;;;;59.30;8.65;;;17.20;74.50;;;;;;10475551;28;20044;-24
2023/03/16 10:43:43;;;;;;;79.18;12.23;;;17.20;75.90;;;;;;10473320;28;20055;-24
2023/03/16 10:48:58;;;;;;;79.65;10.95;;;17.10;75.10;;;;;;10483219;28;20333;-24
2023/03/16 10:54:10;;;;;;;78.35;9.73;;;17.30;74.00;;;;;;10477111;28;20044;-23
2023/03/16 10:59:26;;;;;;;44.53;6.60;;;17.20;72.80;;;;;;10477954;28;20041;-24
2023/03/16 11:04:32;;;;;;;74.30;11.70;;;17.00;73.90;;;;;;10480300;28;20123;-24
2023/03/16 11:09:34;;;;;;;84.20;11.73;;;17.30;71.40;;;;;;10488417;28;20052;-24
2023/03/16 11:14:36;;;;;;;72.65;10.93;;;16.80;76.60;;;;;;10477116;28;20067;-24
2023/03/16 11:19:46;;;;;;;44.27;7.33;;;16.80;65.60;;;;;;10468243;28;20136;-23
2023/03/16 11:24:52;;;;;;;84.65;11.60;;;17.10;73.80;;;;;;10472697;28;20040;-24
2023/03/16 11:30:04;;;;;;;51.70;5.80;;;17.60;72.60;;;;;;10463703;28;20183;-24
2023/03/16 11:35:16;;;;;;;85.17;12.43;;;17.20;72.30;;;;;;10476739;28;20053;-24
2023/03/16 11:40:35;;;;;;;46.50;9.77;;;17.50;73.40;;;;;;10482963;28;20040;-24
2023/03/16 11:45:42;;;;;;;39.78;6.63;;;17.40;71.90;;;;;;10468128;28;20045;-25
2023/03/16 11:50:58;;;;;;;49.47;7.63;;;17.50;71.80;;;;;;10472012;28;20036;-23
2023/03/16 11:56:11;;;;;;;37.15;6.82;;;17.20;76.60;;;;;;10474166;28;20058;-24
2023/03/16 12:01:21;;;;;;;54.65;8.32;;;17.20;74.30;;;;;;10479325;28;20040;-24
2023/03/16 12:06:38;;;;;;;38.25;6.65;;;17.60;74.50;;;;;;10485661;28;20052;-23
2023/03/16 12:11:46;;;;;;;29.90;5.95;;;17.50;73.80;;;;;;10482685;28;20481;-23
2023/03/16 12:16:54;;;;;;;25.67;4.30;;;17.70;71.70;;;;;;10479137;28;20048;-22
2023/03/16 12:22:06;;;;;;;14.77;3.20;;;17.70;71.30;;;;;;10471106;28;20746;-24
2023/03/16 12:27:14;;;;;;;15.80;3.23;;;17.30;67.80;;;;;;10481826;28;20059;-24
2023/03/16 12:32:26;;;;;;;32.88;4.07;;;17.50;70.20;;;;;;10483995;28;20148;-24
2023/03/16 12:37:38;;;;;;;18.52;4.15;;;17.70;73.70;;;;;;10458613;28;20049;-24
2023/03/16 12:42:50;;;;;;;27.38;4.25;;;17.60;72.80;;;;;;10487647;28;20132;-24
2023/03/16 12:48:03;;;;;;;8.65;2.88;;;17.70;69.50;;;;;;10479162;28;20048;-24
2023/03/16 12:53:07;;;;;;;18.45;2.78;;;17.90;70.20;;;;;;10480415;28;20097;-23
2023/03/16 12:58:10;;;;;;;13.95;2.25;;;17.80;70.80;;;;;;10494327;28;20075;-23
2023/03/16 13:03:15;;;;;;;10.85;1.83;;;17.50;73.20;;;;;;10490217;28;20048;-24
2023/03/16 13:08:21;;;;;;;17.92;3.35;;;17.90;71.30;;;;;;10497786;28;20147;-29
2023/03/16 13:13:24;;;;;;;10.15;2.70;;;17.90;71.70;;;;;;10489135;28;20079;-24
2023/03/16 13:18:34;;;;;;;7.07;1.85;;;18.10;69.80;;;;;;10487425;28;20056;-24
2023/03/16 13:23:56;;;;;;;10.55;2.05;;;17.90;69.70;;;;;;10464380;28;20143;-24
2023/03/16 13:28:59;;;;;;;8.38;1.90;;;18.00;70.30;;;;;;10476284;28;20103;-24
2023/03/16 13:34:02;;;;;;;8.93;1.83;;;18.20;68.00;;;;;;10486312;28;20473;-24
2023/03/16 13:39:15;;;;;;;3.85;1.40;;;17.80;71.00;;;;;;10486923;28;20090;-24
2023/03/16 13:44:18;;;;;;;5.47;1.63;;;17.90;67.70;;;;;;10493471;28;20041;-24
2023/03/16 13:49:20;;;;;;;4.82;1.80;;;18.00;69.50;;;;;;10481664;28;20119;-24
2023/03/16 13:54:26;;;;;;;5.50;1.38;;;17.50;69.50;;;;;;10471635;28;20048;-24
2023/03/16 13:59:29;;;;;;;3.78;1.10;;;18.20;68.30;;;;;;10489967;28;20405;-24
2023/03/16 14:04:32;;;;;;;9.85;1.83;;;18.30;67.80;;;;;;10481172;28;20512;-24
2023/03/16 14:09:36;;;;;;;3.17;1.10;;;17.80;73.30;;;;;;10484425;28;20109;-24
2023/03/16 14:14:40;;;;;;;5.18;1.42;;;18.30;68.00;;;;;;10484552;28;20515;-24
2023/03/16 14:19:45;;;;;;;3.60;1.10;;;18.20;69.10;;;;;;10491452;28;20481;-26
2023/03/16 14:24:55;;;;;;;6.10;1.08;;;18.40;65.50;;;;;;10469745;28;20131;-24
2023/03/16 14:30:00;;;;;;;5.22;0.90;;;18.50;68.10;;;;;;10466753;28;20044;-24
2023/03/16 14:35:12;;;;;;;2.83;0.80;;;18.70;63.90;;;;;;10467442;28;20408;-25
2023/03/16 14:40:28;;;;;;;1.85;0.60;;;18.50;65.70;;;;;;10477987;28;20040;-25
2023/03/16 14:45:33;;;;;;;2.28;1.00;;;19.40;60.00;;;;;;10472323;28;20044;-22
2023/03/16 14:50:36;;;;;;;4.68;0.95;;;19.60;56.40;;;;;;10474602;28;20129;-23
2023/03/16 14:55:39;;;;;;;1.65;0.90;;;19.80;57.60;;;;;;10478418;28;20080;-23
2023/03/16 15:00:42;;;;;;;1.88;0.85;;;19.80;57.70;;;;;;10468123;28;20427;-23
2023/03/16 15:05:47;;;;;;;2.90;0.93;;;19.90;56.20;;;;;;10482183;28;22059;-21
2023/03/16 15:10:50;;;;;;;7.28;1.58;;;19.90;54.50;;;;;;10478648;28;20067;-24
2023/03/16 15:15:52;;;;;;;2.60;0.73;;;20.00;54.30;;;;;;10470739;28;20048;-23
2023/03/16 15:20:55;;;;;;;2.83;0.80;;;20.10;53.50;;;;;;10479299;28;20449;-23
2023/03/16 15:26:01;;;;;;;3.35;0.63;;;20.30;53.00;;;;;;10473581;28;20048;-23
2023/03/16 15:31:04;;;;;;;2.33;0.90;;;20.30;52.60;;;;;;10467993;28;20449;-24
2023/03/16 15:36:13;;;;;;;1.92;0.68;;;20.30;52.00;;;;;;10490073;28;20041;-24
2023/03/16 15:41:16;;;;;;;2.38;0.65;;;20.40;51.50;;;;;;10487158;28;20492;-23
2023/03/16 15:46:19;;;;;;;2.58;0.73;;;20.40;51.30;;;;;;10491407;28;20140;-23
2023/03/16 15:51:25;;;;;;;3.58;0.88;;;20.40;50.70;;;;;;10487072;28;20082;-23
2023/03/16 15:56:31;;;;;;;2.55;1.08;;;20.50;50.30;;;;;;10482530;28;20041;-24
2023/03/16 16:01:39;;;;;;;2.30;0.98;;;20.40;51.10;;;;;;10483831;28;20052;-23
2023/03/16 16:06:41;;;;;;;3.13;0.75;;;20.30;50.90;;;;;;10486332;28;20052;-22
2023/03/16 16:11:46;;;;;;;2.72;0.80;;;20.50;51.40;;;;;;10489911;28;20057;-24
2023/03/16 16:16:47;;;;;;;2.03;0.57;;;20.60;50.10;;;;;;10489141;28;20060;-24
2023/03/16 16:21:49;;;;;;;4.15;0.80;;;20.50;50.10;;;;;;10489966;28;20051;-25
2023/03/16 16:26:53;;;;;;;1.92;0.77;;;20.60;51.40;;;;;;10491274;28;20513;-23
2023/03/16 16:31:54;;;;;;;2.63;0.77;;;20.60;49.90;;;;;;10491954;28;20473;-23
2023/03/16 16:36:57;;;;;;;6.25;1.52;;;20.60;50.80;;;;;;10488493;28;20472;-23
2023/03/16 16:42:00;;;;;;;3.63;0.70;;;20.70;49.50;;;;;;10487777;28;20086;-23
2023/03/16 16:47:03;;;;;;;4.20;0.57;;;20.70;50.20;;;;;;10477757;28;20072;-23
2023/03/16 16:52:05;;;;;;;1.98;0.63;;;20.60;50.10;;;;;;10488418;28;20693;-23
2023/03/16 16:57:14;;;;;;;;;;;20.60;50.20;;;;;;10475851;28;20049;-23
2023/03/16 17:02:29;;;;;;;3.13;0.70;;;20.50;50.90;;;;;;10488101;28;19921;-23
2023/03/16 17:07:31;;;;;;;4.30;0.52;;;20.50;50.80;;;;;;10492664;28;20047;-22
2023/03/16 17:12:34;;;;;;;3.10;1.13;;;20.50;51.70;;;;;;10495900;28;20095;-23
2023/03/16 17:17:36;;;;;;;2.40;1.00;;;20.40;55.70;;;;;;10498175;28;20528;-25
2023/03/16 17:22:39;;;;;;;5.85;1.17;;;20.40;54.10;;;;;;10491636;28;20131;-24
2023/03/16 17:27:45;;;;;;;3.22;1.15;;;20.30;56.20;;;;;;10504802;28;20150;-24
2023/03/16 17:32:47;;;;;;;1.92;0.82;;;20.20;56.40;;;;;;10496068;28;20040;-24
2023/03/16 17:37:49;;;;;;;2.70;1.25;;;20.20;57.70;;;;;;10474441;28;20040;-23
2023/03/16 17:42:55;;;;;;;4.35;1.58;;;20.20;57.80;;;;;;10491092;28;20088;-23
2023/03/16 17:47:56;;;;;;;6.95;1.52;;;20.20;58.30;;;;;;10471551;28;20047;-22
2023/03/16 17:52:58;;;;;;;8.70;1.20;;;20.20;58.30;;;;;;10487307;28;20044;-22
2023/03/16 17:58:02;;;;;;;5.78;1.60;;;20.10;59.70;;;;;;10479457;28;20174;-24
2023/03/16 18:03:11;;;;;;;6.60;1.88;;;20.10;58.30;;;;;;10479250;28;20098;-23
2023/03/16 18:08:16;;;;;;;7.53;1.30;;;20.00;58.50;;;;;;10492586;28;20351;-23
2023/03/16 18:13:22;;;;;;;3.05;1.23;;;20.00;58.60;;;;;;10477425;28;20052;-24
2023/03/16 18:18:26;;;;;;;9.88;2.03;;;19.80;60.90;;;;;;10469903;28;20044;-24
2023/03/16 18:23:30;;;;;;;5.55;1.80;;;19.90;60.10;;;;;;10470609;28;20143;-26
2023/03/16 18:28:34;;;;;;;5.00;2.10;;;19.80;59.10;;;;;;10477158;28;20044;-23
2023/03/16 18:33:39;;;;;;;4.15;2.15;;;19.60;63.90;;;;;;10485628;28;20041;-23
2023/03/16 18:38:44;;;;;;;5.18;2.22;;;19.40;65.00;;;;;;10482922;28;20058;-22
2023/03/16 18:43:48;;;;;;;7.03;3.47;;;19.40;66.00;;;;;;10491335;28;20106;-23
2023/03/16 18:48:51;;;;;;;4.13;2.50;;;19.50;65.30;;;;;;10483547;28;20040;-24
2023/03/16 18:53:54;;;;;;;7.82;2.92;;;19.40;66.30;;;;;;10471040;28;20048;-23
2023/03/16 18:58:57;;;;;;;;;;;19.30;67.90;;;;;;10474430;28;20040;-23
2023/03/16 19:04:01;;;;;;;4.40;2.17;;;19.30;68.00;;;;;;10476039;28;19954;-23
2023/03/16 19:09:07;;;;;;;8.95;2.50;;;19.20;68.00;;;;;;10468980;28;20041;-24
2023/03/16 19:14:16;;;;;;;6.97;2.28;;;19.00;70.00;;;;;;10469100;28;20067;-21
2023/03/16 19:19:20;;;;;;;8.32;2.17;;;18.80;69.90;;;;;;10474194;28;20536;-24
2023/03/16 19:24:25;;;;;;;8.07;2.30;;;18.80;70.00;;;;;;10477783;28;20044;-23
2023/03/16 19:29:31;;;;;;;6.35;1.80;;;18.90;69.80;;;;;;10483348;28;20135;-24
2023/03/16 19:34:33;;;;;;;8.75;2.63;;;18.70;68.30;;;;;;10480067;28;20099;-26
2023/03/16 19:39:35;;;;;;;8.57;2.67;;;18.50;69.00;;;;;;10479779;28;20137;-24
2023/03/16 19:44:39;;;;;;;6.57;1.92;;;18.60;70.70;;;;;;10479098;28;20056;-28
2023/03/16 19:49:40;;;;;;;9.73;1.88;;;18.70;67.70;;;;;;10473474;28;20070;-26
2023/03/16 19:54:43;;;;;;;5.90;2.08;;;19.20;65.20;;;;;;10480384;28;20524;-27
2023/03/16 19:59:49;;;;;;;4.72;1.67;;;19.20;64.50;;;;;;10474387;28;20037;-23
2023/03/16 20:04:52;;;;;;;7.32;2.25;;;19.20;63.00;;;;;;10478588;28;20040;-23
2023/03/16 20:09:54;;;;;;;5.03;1.95;;;19.20;64.00;;;;;;10494157;28;20048;-25
2023/03/16 20:14:58;;;;;;;3.88;1.15;;;19.30;63.50;;;;;;10487379;28;20049;-25
2023/03/16 20:20:00;;;;;;;3.50;1.95;;;19.30;63.70;;;;;;10482990;28;20555;-23
2023/03/16 20:25:04;;;;;;;;;;;19.30;63.10;;;;;;10489095;28;20040;-24
2023/03/16 20:30:14;;;;;;;4.22;1.50;;;19.40;63.30;;;;;;10486583;28;19942;-25
2023/03/16 20:35:22;;;;;;;3.42;1.60;;;19.30;63.40;;;;;;10483044;28;20052;-24
2023/03/16 20:40:24;;;;;;;3.28;1.63;;;19.30;63.40;;;;;;10487191;28;20037;-28
2023/03/16 20:45:29;;;;;;;5.55;1.55;;;19.20;63.70;;;;;;10489531;28;20051;-25
2023/03/16 20:50:31;;;;;;;9.55;2.38;;;19.30;63.20;;;;;;10484582;28;20154;-24
2023/03/16 20:55:33;;;;;;;3.15;1.75;;;19.20;63.10;;;;;;10488375;28;20058;-26
2023/03/16 21:00:38;;;;;;;6.65;1.35;;;19.20;63.60;;;;;;10486834;28;20082;-25
2023/03/16 21:05:40;;;;;;;4.97;1.63;;;19.10;63.70;;;;;;10484308;28;20068;-25
2023/03/16 21:10:42;;;;;;;4.90;2.05;;;19.20;63.90;;;;;;10482928;28;20047;-24
2023/03/16 21:15:48;;;;;;;8.45;1.75;;;19.20;64.00;;;;;;10494548;28;20044;-25
2023/03/16 21:20:51;;;;;;;9.70;2.50;;;19.00;64.40;;;;;;10484419;28;20059;-23
2023/03/16 21:25:55;;;;;;;6.97;2.63;;;19.10;64.20;;;;;;10478777;28;20045;-25
2023/03/16 21:30:59;;;;;;;8.05;2.10;;;19.00;64.80;;;;;;10490977;28;20480;-22
2023/03/16 21:36:03;;;;;;;7.53;2.47;;;19.00;64.70;;;;;;10494659;28;20664;-24
2023/03/16 21:41:06;;;;;;;9.70;2.25;;;19.00;65.00;;;;;;10488482;28;20086;-25
2023/03/16 21:46:15;;;;;;;9.20;1.63;;;19.00;65.10;;;;;;10481048;28;20056;-26
2023/03/16 21:51:20;;;;;;;7.78;2.00;;;19.10;65.10;;;;;;10478502;28;20055;-27
2023/03/16 21:56:24;;;;;;;6.88;2.63;;;19.00;65.20;;;;;;10481662;28;20044;-24
2023/03/16 22:01:31;;;;;;;8.15;2.55;;;19.00;65.30;;;;;;10488334;28;20037;-25
2023/03/16 22:06:33;;;;;;;9.98;1.73;;;19.00;61.90;;;;;;10478652;28;20053;-24
2023/03/16 22:11:35;;;;;;;9.80;2.90;;;19.00;65.40;;;;;;10483400;28;20589;-24
2023/03/16 22:16:39;;;;;;;8.68;1.98;;;19.00;65.70;;;;;;10483563;28;20052;-23
2023/03/16 22:21:43;;;;;;;6.10;2.03;;;18.90;65.80;;;;;;10479044;28;20080;-21
2023/03/16 22:26:46;;;;;;;3.97;1.85;;;19.00;65.90;;;;;;10473133;28;20064;-24
2023/03/16 22:31:52;;;;;;;8.63;2.22;;;18.80;66.10;;;;;;10476598;28;20044;-26
2023/03/16 22:36:54;;;;;;;7.72;1.73;;;18.70;66.10;;;;;;10489672;28;20047;-26
2023/03/16 22:41:56;;;;;;;;;;;18.80;66.30;;;;;;10471916;28;20040;-24
2023/03/16 22:47:00;;;;;;;4.88;1.45;;;18.70;65.70;;;;;;10465563;28;19924;-25
2023/03/16 22:52:01;;;;;;;6.00;1.60;;;18.80;66.20;;;;;;10483180;28;20457;-22
2023/03/16 22:57:04;;;;;;;9.05;1.30;;;18.80;65.10;;;;;;10489876;28;20080;-23
2023/03/16 23:02:13;;;;;;;3.35;1.38;;;18.70;66.80;;;;;;10485415;28;20058;-23
2023/03/16 23:07:15;;;;;;;4.13;1.60;;;18.80;66.40;;;;;;10482093;28;20094;-23
2023/03/16 23:12:20;;;;;;;3.63;1.42;;;18.70;66.60;;;;;;10483049;28;20045;-23
2023/03/16 23:17:24;;;;;;;5.18;1.40;;;18.70;66.40;;;;;;10491013;28;20548;-23
2023/03/16 23:22:26;;;;;;;4.28;1.10;;;18.70;66.80;;;;;;10483442;28;20914;-23
2023/03/16 23:27:28;;;;;;;2.08;1.10;;;18.70;66.90;;;;;;10461975;28;20040;-24
2023/03/16 23:32:31;;;;;;;2.72;1.50;;;18.70;66.80;;;;;;10456337;28;20128;-23
2023/03/16 23:37:33;;;;;;;5.10;1.23;;;18.70;66.90;;;;;;10476428;28;20048;-24
2023/03/16 23:42:35;;;;;;;4.38;1.40;;;18.70;66.80;;;;;;10479636;28;20456;-23
2023/03/16 23:47:38;;;;;;;6.88;1.30;;;18.60;67.00;;;;;;10484785;28;20044;-23
2023/03/16 23:52:40;;;;;;;3.28;1.33;;;18.50;67.30;;;;;;10474441;28;20099;-24
2023/03/16 23:57:42;;;;;;;5.55;1.45;;;18.60;67.20;;;;;;10483769;28;20071;-23
